Time;durP1;ratioP1;P1;durP2;ratioP2;P2;SDS_P1;SDS_P2;PMS_P1;PMS_P2;Temp;Humidity;BMP_temperature;BMP_pressure;BME280_temperature;BME280_humidity;BME280_pressure;Samples;Min_cycle;Max_cycle;Signal;HPM_P1;HPM_P2
2021/12/01 00:00:08;;;;;;;3.60;2.23;;;;;;;3.95;100.00;97998.38;4974374;28;20026;-58
2021/12/01 00:02:33;;;;;;;4.27;2.40;;;;;;;4.02;100.00;97999.31;4974580;28;20042;-58
2021/12/01 00:04:59;;;;;;;4.70;2.67;;;;;;;3.92;100.00;98009.34;4974204;28;20315;-57
2021/12/01 00:07:24;;;;;;;5.00;2.60;;;;;;;4.01;100.00;98000.31;4974016;28;20050;-57
2021/12/01 00:09:51;;;;;;;4.73;2.73;;;;;;;4.02;100.00;97994.03;4973784;28;20037;-57
2021/12/01 00:12:20;;;;;;;4.90;2.80;;;;;;;4.04;100.00;97999.91;4974330;28;20123;-55
2021/12/01 00:14:46;;;;;;;4.40;2.60;;;;;;;3.90;100.00;97998.13;4974092;28;20265;-55
2021/12/01 00:17:12;;;;;;;4.97;3.00;;;;;;;4.10;100.00;98001.03;4974126;28;20622;-56
2021/12/01 00:19:39;;;;;;;4.93;2.73;;;;;;;4.17;100.00;98000.09;4974361;28;20412;-55
2021/12/01 00:22:05;;;;;;;4.83;2.80;;;;;;;4.12;100.00;98002.50;4974019;28;20269;-55
2021/12/01 00:24:30;;;;;;;5.67;2.80;;;;;;;4.29;100.00;97995.97;4974042;28;20271;-54
2021/12/01 00:26:56;;;;;;;4.93;2.77;;;;;;;4.30;100.00;98002.09;4972668;28;20031;-55
2021/12/01 00:29:22;;;;;;;6.30;2.57;;;;;;;4.29;100.00;98000.44;4973941;28;20039;-56
2021/12/01 00:31:47;;;;;;;5.40;2.60;;;;;;;4.31;100.00;97996.63;4973855;28;20042;-53
2021/12/01 00:34:13;;;;;;;4.30;2.50;;;;;;;4.32;100.00;98006.19;4973877;28;20077;-54
2021/12/01 00:36:39;;;;;;;4.47;2.50;;;;;;;4.38;100.00;97999.38;4973814;28;20023;-55
2021/12/01 00:39:05;;;;;;;4.70;2.57;;;;;;;4.49;100.00;98000.72;4973605;28;20502;-51
2021/12/01 00:41:30;;;;;;;4.87;2.80;;;;;;;4.42;100.00;98005.09;4973785;28;20499;-51
2021/12/01 00:43:56;;;;;;;4.87;2.80;;;;;;;4.49;100.00;98003.38;4973644;28;20292;-53
2021/12/01 00:46:25;;;;;;;4.93;2.80;;;;;;;4.55;100.00;98005.25;4973540;28;20792;-55
2021/12/01 00:48:51;;;;;;;5.60;3.00;;;;;;;4.51;100.00;98004.78;4973507;28;20031;-55
2021/12/01 00:51:16;;;;;;;4.80;3.00;;;;;;;4.44;100.00;98011.84;4973446;28;20346;-55
2021/12/01 00:53:45;;;;;;;6.10;2.70;;;;;;;4.42;100.00;98003.25;4973331;28;20041;-56
2021/12/01 00:56:11;;;;;;;4.90;3.10;;;;;;;4.48;100.00;98017.59;4973204;28;20050;-53
2021/12/01 00:58:37;;;;;;;5.00;2.90;;;;;;;4.52;100.00;98018.84;4973229;28;20265;-56
2021/12/01 01:01:03;;;;;;;5.37;3.00;;;;;;;4.61;100.00;98010.63;4973177;28;20125;-55
2021/12/01 01:03:31;;;;;;;5.23;2.93;;;;;;;4.52;100.00;98017.00;4973110;28;20030;-55
2021/12/01 01:05:57;;;;;;;4.70;3.00;;;;;;;4.56;100.00;98015.66;4972896;28;20303;-55
2021/12/01 01:08:23;;;;;;;6.73;2.90;;;;;;;4.47;100.00;98010.66;4973141;28;20280;-53
2021/12/01 01:16:23;;;;;;;7.13;4.20;;;;;;;4.66;100.00;98010.06;4972882;28;20311;-54
2021/12/01 01:18:53;;;;;;;6.13;3.93;;;;;;;4.63;100.00;98007.78;4971763;28;20279;-53
2021/12/01 01:21:19;;;;;;;5.03;3.27;;;;;;;4.49;100.00;98004.19;4972744;28;20336;-56
2021/12/01 01:23:45;;;;;;;6.37;3.23;;;;;;;4.65;100.00;98011.88;4972330;28;20351;-55
2021/12/01 01:26:13;;;;;;;5.80;3.60;;;;;;;4.68;100.00;98010.69;4972687;28;20073;-54
2021/12/01 01:28:40;;;;;;;9.07;7.17;;;;;;;4.62;100.00;98011.44;4972758;28;20816;-56
2021/12/01 01:31:06;;;;;;;11.13;8.67;;;;;;;4.76;100.00;98015.88;4971550;28;20615;-52
2021/12/01 01:33:31;;;;;;;7.20;5.10;;;;;;;4.81;100.00;98004.72;4972725;28;20272;-56
2021/12/01 01:35:57;;;;;;;6.00;3.20;;;;;;;4.66;100.00;98002.94;4972568;28;20057;-54
2021/12/01 01:38:22;;;;;;;9.00;6.93;;;;;;;4.59;100.00;97999.41;4972630;28;20038;-54
2021/12/01 01:40:48;;;;;;;8.80;4.87;;;;;;;4.69;100.00;97996.47;4972544;28;20026;-55
2021/12/01 01:43:15;;;;;;;5.43;3.30;;;;;;;4.66;100.00;97988.88;4972772;28;20077;-55
2021/12/01 01:45:41;;;;;;;5.40;3.13;;;;;;;4.61;100.00;97993.94;4972576;28;20039;-56
2021/12/01 01:48:11;;;;;;;8.47;3.70;;;;;;;4.76;100.00;97994.69;4972385;28;20331;-54
2021/12/01 01:50:38;;;;;;;5.27;3.30;;;;;;;4.78;100.00;97979.47;4972440;28;20023;-55
2021/12/01 01:53:24;;;;;;;4.80;2.70;;;;;;;4.82;100.00;97971.97;4972415;28;20323;-54
2021/12/01 01:55:52;;;;;;;4.60;2.70;;;;;;;4.82;100.00;97979.91;4972617;28;20265;-53
2021/12/01 01:58:19;;;;;;;8.30;4.23;;;;;;;4.80;100.00;97969.50;4972550;28;20678;-55
2021/12/01 02:00:52;;;;;;;11.43;6.63;;;;;;;4.64;100.00;97964.44;4972599;28;20268;-53
2021/12/01 02:03:23;;;;;;;8.45;6.22;;;;;;;4.74;100.00;97964.94;4972599;28;20279;-55
2021/12/01 02:05:50;;;;;;;4.77;2.87;;;;;;;4.74;100.00;97960.47;4972579;28;20396;-54
2021/12/01 02:08:18;;;;;;;4.37;2.67;;;;;;;4.74;100.00;97955.19;4972295;28;20364;-56
2021/12/01 02:10:48;;;;;;;4.93;3.13;;;;;;;4.77;100.00;97959.28;4972530;28;20737;-54
2021/12/01 02:13:18;;;;;;;6.53;4.33;;;;;;;4.79;100.00;97945.88;4972327;28;20252;-53
2021/12/01 02:15:44;;;;;;;6.17;4.50;;;;;;;4.59;100.00;97951.78;4972377;28;20662;-53
2021/12/01 02:18:10;;;;;;;8.37;6.70;;;;;;;4.62;100.00;97937.34;4972376;28;20370;-56
2021/12/01 02:20:36;;;;;;;5.80;3.90;;;;;;;4.55;100.00;97926.72;4972641;28;20698;-54
2021/12/01 02:23:02;;;;;;;6.07;4.10;;;;;;;4.50;100.00;97929.09;4972357;28;20026;-53
2021/12/01 02:25:28;;;;;;;12.10;9.40;;;;;;;4.48;100.00;97925.81;4972371;28;20275;-54
2021/12/01 02:27:55;;;;;;;10.10;8.77;;;;;;;4.55;100.00;97921.41;4987151;28;20035;-54
2021/12/01 02:30:23;;;;;;;6.93;5.13;;;;;;;4.57;100.00;97919.41;4972451;28;20269;-51
2021/12/01 02:32:51;;;;;;;5.07;3.13;;;;;;;4.61;100.00;97914.56;4972329;28;20804;-56
2021/12/01 02:35:17;;;;;;;4.97;3.10;;;;;;;4.54;100.00;97919.78;4975781;28;20264;-54
2021/12/01 02:37:43;;;;;;;4.73;2.67;;;;;;;4.57;100.00;97905.34;4974588;28;20395;-55
2021/12/01 02:40:10;;;;;;;3.90;2.30;;;;;;;4.80;100.00;97911.28;4974539;28;20359;-55
2021/12/01 02:42:35;;;;;;;3.83;2.40;;;;;;;4.75;100.00;97900.44;4974720;28;20109;-56
2021/12/01 02:45:03;;;;;;;5.20;2.67;;;;;;;4.81;100.00;97898.88;4975751;28;20698;-55
2021/12/01 02:47:29;;;;;;;5.13;3.37;;;;;;;4.85;100.00;97903.56;4975594;28;20079;-55
2021/12/01 02:49:55;;;;;;;4.77;2.50;;;;;;;4.74;100.00;97904.91;4974470;28;20307;-55
2021/12/01 02:52:24;;;;;;;4.10;2.30;;;;;;;4.89;100.00;97899.56;4975562;28;20682;-54
2021/12/01 02:54:50;;;;;;;4.37;2.70;;;;;;;4.98;100.00;97901.03;4975940;28;20039;-52
2021/12/01 02:57:16;;;;;;;3.80;2.60;;;;;;;4.98;100.00;97890.47;4975357;28;20271;-54
2021/12/01 02:59:42;;;;;;;5.37;4.17;;;;;;;4.88;100.00;97887.31;4975494;28;20264;-56
2021/12/01 03:02:09;;;;;;;4.13;2.90;;;;;;;4.92;100.00;97880.66;4975478;28;20799;-56
2021/12/01 03:04:35;;;;;;;4.57;2.97;;;;;;;4.95;100.00;97877.63;4975533;28;20392;-55
2021/12/01 03:07:03;;;;;;;4.83;3.00;;;;;;;4.95;100.00;97877.63;4975025;28;20284;-54
2021/12/01 03:09:29;;;;;;;10.77;9.67;;;;;;;4.94;100.00;97875.97;4975366;28;20295;-54
2021/12/01 03:11:54;;;;;;;4.33;2.80;;;;;;;4.93;100.00;97869.06;4975255;28;20308;-54
2021/12/01 03:14:20;;;;;;;5.93;4.30;;;;;;;4.88;100.00;97866.16;4975209;28;20351;-55
2021/12/01 03:16:49;;;;;;;5.00;2.87;;;;;;;4.76;100.00;97865.03;4975147;28;20047;-54
2021/12/01 03:19:15;;;;;;;5.53;4.57;;;;;;;4.72;100.00;97874.38;4975164;28;20494;-55
2021/12/01 03:21:43;;;;;;;5.40;3.73;;;;;;;4.74;100.00;97861.75;4975075;28;20261;-53
2021/12/01 03:24:10;;;;;;;6.70;3.00;;;;;;;4.84;100.00;97867.56;4975019;28;20022;-53
2021/12/01 03:26:36;;;;;;;5.20;3.10;;;;;;;4.82;100.00;97864.28;4974758;28;20280;-54
2021/12/01 03:29:04;;;;;;;4.50;3.27;;;;;;;4.76;100.00;97864.22;4974853;28;20279;-54
2021/12/01 03:31:29;;;;;;;4.20;2.80;;;;;;;4.71;100.00;97855.03;4974961;28;20272;-55
2021/12/01 03:33:55;;;;;;;8.57;7.67;;;;;;;4.66;100.00;97851.31;4974836;28;20265;-55
2021/12/01 03:36:21;;;;;;;8.77;6.60;;;;;;;4.68;100.00;97862.53;4974817;28;20033;-55
2021/12/01 03:38:48;;;;;;;9.50;7.33;;;;;;;4.74;100.00;97864.38;4974812;28;20384;-54
2021/12/01 03:41:14;;;;;;;11.67;9.27;;;;;;;4.66;100.00;97862.72;4974644;28;20269;-55
2021/12/01 03:43:39;;;;;;;6.90;4.93;;;;;;;4.71;100.00;97862.16;4973613;28;20269;-56
2021/12/01 03:46:05;;;;;;;7.97;6.57;;;;;;;4.62;100.00;97853.50;4973716;28;20033;-55
2021/12/01 03:48:31;;;;;;;8.53;7.27;;;;;;;4.63;100.00;97852.50;4974847;28;20392;-55
2021/12/01 03:50:57;;;;;;;6.83;5.47;;;;;;;4.72;100.00;97859.31;4974630;28;20102;-55
2021/12/01 03:53:24;;;;;;;7.57;6.77;;;;;;;4.77;100.00;97845.50;4974944;28;20027;-54
2021/12/01 03:55:50;;;;;;;9.80;7.53;;;;;;;4.95;100.00;97845.88;4974497;28;20749;-56
2021/12/01 03:58:16;;;;;;;13.27;11.27;;;;;;;4.85;100.00;97841.88;4974583;28;20324;-53
2021/12/01 04:00:41;;;;;;;12.50;9.07;;;;;;;4.89;100.00;97843.16;4974588;28;20713;-54
2021/12/01 04:03:07;;;;;;;9.80;8.53;;;;;;;4.91;100.00;97841.13;4974517;28;20112;-55
2021/12/01 04:05:33;;;;;;;7.10;5.43;;;;;;;4.73;100.00;97837.09;4974444;28;20100;-54
2021/12/01 04:08:01;;;;;;;7.30;5.43;;;;;;;4.68;100.00;97830.78;4974017;28;20049;-53
2021/12/01 04:10:28;;;;;;;9.03;7.77;;;;;;;4.69;100.00;97825.28;4974479;28;20085;-55
2021/12/01 04:12:53;;;;;;;13.10;10.57;;;;;;;4.84;100.00;97822.56;4974183;28;20754;-55
2021/12/01 04:15:19;;;;;;;10.63;8.73;;;;;;;4.89;100.00;97828.09;4973969;28;20272;-54
2021/12/01 04:17:45;;;;;;;12.00;9.17;;;;;;;4.86;100.00;97822.34;4973989;28;20175;-54
2021/12/01 04:20:12;;;;;;;12.10;8.77;;;;;;;4.93;100.00;97816.13;4974137;28;20023;-56
2021/12/01 04:22:39;;;;;;;7.03;4.47;;;;;;;4.86;100.00;97814.41;4972511;28;20029;-55
2021/12/01 04:25:05;;;;;;;5.10;3.00;;;;;;;4.96;100.00;97813.06;4973738;28;20261;-56
2021/12/01 04:27:31;;;;;;;4.53;3.10;;;;;;;5.01;100.00;97810.66;4973631;28;20288;-53
2021/12/01 04:29:57;;;;;;;5.00;3.00;;;;;;;4.99;100.00;97819.81;4973641;28;20741;-53
2021/12/01 04:32:24;;;;;;;5.43;3.27;;;;;;;4.91;100.00;97810.19;4973720;28;20276;-56
2021/12/01 04:34:49;;;;;;;4.87;2.97;;;;;;;5.17;100.00;97801.59;4972478;28;20030;-55
2021/12/01 04:37:15;;;;;;;4.43;2.40;;;;;;;5.08;100.00;97792.97;4973526;28;20256;-54
2021/12/01 04:39:42;;;;;;;4.73;2.90;;;;;;;5.06;100.00;97792.38;4972403;28;20066;-53
2021/12/01 04:42:08;;;;;;;4.77;2.87;;;;;;;5.02;100.00;97801.72;4973547;28;20031;-54
2021/12/01 04:44:38;;;;;;;5.30;3.03;;;;;;;5.04;100.00;97796.22;4973524;28;20284;-55
2021/12/01 04:47:09;;;;;;;4.87;3.00;;;;;;;5.18;100.00;97794.47;4973340;28;20311;-54
2021/12/01 04:49:37;;;;;;;5.00;3.13;;;;;;;5.09;100.00;97789.31;4973369;28;20260;-54
2021/12/01 04:52:04;;;;;;;5.17;3.27;;;;;;;5.12;100.00;97796.06;4973269;28;20638;-56
2021/12/01 04:54:30;;;;;;;5.30;3.40;;;;;;;4.96;100.00;97799.81;4972083;28;20280;-55
2021/12/01 04:56:56;;;;;;;5.70;3.43;;;;;;;5.04;100.00;97802.34;4973089;28;20265;-55
2021/12/01 04:59:23;;;;;;;5.30;3.30;;;;;;;5.02;100.00;97798.25;4973229;28;20273;-53
2021/12/01 05:01:52;;;;;;;5.63;3.90;;;;;;;5.05;100.00;97801.34;4973142;28;20784;-54
2021/12/01 05:04:18;;;;;;;6.00;3.70;;;;;;;5.02;100.00;97796.41;4972969;28;20773;-56
2021/12/01 05:06:44;;;;;;;5.53;3.73;;;;;;;5.12;100.00;97800.53;4971340;28;20392;-55
2021/12/01 05:09:10;;;;;;;6.00;3.97;;;;;;;5.06;100.00;97808.25;4972895;28;20034;-55
2021/12/01 05:11:36;;;;;;;6.00;3.73;;;;;;;5.05;100.00;97803.16;4973003;28;20030;-55
2021/12/01 05:14:02;;;;;;;7.73;4.43;;;;;;;5.02;100.00;97795.59;4972929;28;20268;-55
2021/12/01 05:16:28;;;;;;;6.13;3.97;;;;;;;5.05;100.00;97787.28;4972804;28;20264;-54
2021/12/01 05:18:54;;;;;;;6.30;4.07;;;;;;;4.98;100.00;97789.03;4972933;28;20287;-54
2021/12/01 05:21:19;;;;;;;7.17;4.37;;;;;;;4.86;100.00;97791.41;4972882;28;20035;-53
2021/12/01 05:23:46;;;;;;;6.73;4.13;;;;;;;5.16;100.00;97789.38;4972788;28;20035;-55
2021/12/01 05:26:12;;;;;;;7.20;4.47;;;;;;;5.16;100.00;97792.03;4972614;28;20069;-52
2021/12/01 05:28:39;;;;;;;7.10;4.60;;;;;;;5.11;100.00;97794.44;4973109;28;20292;-54
2021/12/01 05:31:06;;;;;;;7.00;4.30;;;;;;;5.22;100.00;97788.59;4972642;28;20269;-55
2021/12/01 05:33:32;;;;;;;7.20;4.37;;;;;;;5.09;100.00;97784.03;4987736;28;20753;-55
2021/12/01 05:35:58;;;;;;;7.53;4.57;;;;;;;5.15;100.00;97790.38;4972553;28;20685;-53
2021/12/01 05:38:24;;;;;;;6.67;4.23;;;;;;;5.20;100.00;97782.66;4972881;28;20349;-55
2021/12/01 05:40:50;;;;;;;6.80;4.20;;;;;;;5.27;100.00;97782.72;4972664;28;20756;-55
2021/12/01 05:43:17;;;;;;;6.13;4.30;;;;;;;5.23;100.00;97782.28;4972813;28;20519;-55
2021/12/01 05:45:44;;;;;;;6.87;4.63;;;;;;;5.26;100.00;97781.06;4972630;28;20272;-55
2021/12/01 05:48:10;;;;;;;7.20;4.60;;;;;;;5.37;100.00;97773.41;4972666;28;20339;-53
2021/12/01 05:50:36;;;;;;;7.30;4.60;;;;;;;5.35;100.00;97764.81;4972589;28;20395;-55
2021/12/01 05:53:02;;;;;;;7.63;4.80;;;;;;;5.29;100.00;97776.22;4972505;28;20356;-54
2021/12/01 05:55:28;;;;;;;7.63;5.03;;;;;;;5.35;100.00;97771.94;4971407;28;20085;-55
2021/12/01 05:57:53;;;;;;;8.13;4.90;;;;;;;5.33;100.00;97773.97;4972265;28;20268;-56
2021/12/01 06:00:20;;;;;;;8.97;4.77;;;;;;;5.33;100.00;97766.84;4972096;28;20066;-55
2021/12/01 06:02:50;;;;;;;8.30;5.00;;;;;;;5.31;100.00;97763.56;4972302;28;20472;-58
2021/12/01 06:05:20;;;;;;;6.67;4.13;;;;;;;5.37;100.00;97756.69;4972227;28;20280;-57
2021/12/01 06:07:47;;;;;;;7.73;5.00;;;;;;;5.38;100.00;97758.31;4972126;28;20300;-56
2021/12/01 06:10:13;;;;;;;6.83;4.60;;;;;;;5.42;100.00;97756.91;4976071;28;20403;-54
2021/12/01 06:12:40;;;;;;;7.47;4.90;;;;;;;5.37;100.00;97746.91;4976349;28;20838;-57
2021/12/01 06:15:08;;;;;;;7.70;4.40;;;;;;;5.42;100.00;97743.69;4976358;28;20464;-56
2021/12/01 06:17:36;;;;;;;7.10;4.60;;;;;;;5.59;100.00;97750.25;4975892;28;20276;-58
2021/12/01 06:20:04;;;;;;;9.53;5.70;;;;;;;5.41;100.00;97753.44;4975893;28;20276;-57
2021/12/01 06:22:30;;;;;;;9.17;5.30;;;;;;;5.50;100.00;97746.16;4975757;28;20295;-55
2021/12/01 06:24:56;;;;;;;20.40;11.77;;;;;;;5.44;100.00;97754.88;4975849;28;20300;-56
2021/12/01 06:27:23;;;;;;;9.23;6.33;;;;;;;5.35;100.00;97756.88;4974623;28;20578;-56
2021/12/01 06:29:49;;;;;;;7.27;4.67;;;;;;;5.41;100.00;97757.94;4975810;28;20399;-56
2021/12/01 06:32:15;;;;;;;8.13;5.30;;;;;;;5.53;100.00;97751.06;4975549;28;20284;-55
2021/12/01 06:34:41;;;;;;;9.93;7.93;;;;;;;5.52;100.00;97752.06;4975831;28;20304;-56
2021/12/01 06:37:07;;;;;;;8.63;5.67;;;;;;;5.49;100.00;97751.63;4975666;28;20043;-57
2021/12/01 06:39:32;;;;;;;7.70;5.10;;;;;;;5.57;100.00;97752.28;4975761;28;20302;-57
2021/12/01 06:41:58;;;;;;;7.03;5.17;;;;;;;5.47;100.00;97754.47;4975963;28;20480;-56
2021/12/01 06:44:24;;;;;;;12.80;6.53;;;;;;;5.57;100.00;97757.56;4975693;28;20069;-55
2021/12/01 06:46:51;;;;;;;12.97;9.00;;;;;;;5.63;100.00;97755.97;4975469;28;20444;-58
2021/12/01 06:49:16;;;;;;;16.20;10.63;;;;;;;5.66;100.00;97751.06;4975725;28;20756;-56
2021/12/01 06:51:42;;;;;;;10.00;7.23;;;;;;;5.57;100.00;97741.66;4974013;28;20269;-56
2021/12/01 06:54:08;;;;;;;11.00;8.10;;;;;;;5.59;100.00;97746.78;4970273;28;20030;-51
2021/12/01 06:56:33;;;;;;;10.70;7.10;;;;;;;5.85;100.00;97746.03;4971894;28;20074;-57
2021/12/01 06:58:59;;;;;;;12.23;7.50;;;;;;;5.85;100.00;97738.09;4974318;28;20085;-56
2021/12/01 07:01:24;;;;;;;16.90;8.77;;;;;;;5.83;100.00;97725.84;4975305;28;20085;-57
2021/12/01 07:03:50;;;;;;;18.80;11.07;;;;;;;5.95;100.00;97735.91;4975281;28;20041;-57
2021/12/01 07:06:15;;;;;;;19.37;11.67;;;;;;;5.96;100.00;97733.06;4974877;28;20035;-53
2021/12/01 07:08:41;;;;;;;29.23;14.33;;;;;;;5.76;100.00;97729.50;4975168;28;20089;-55
2021/12/01 07:11:07;;;;;;;36.53;18.70;;;;;;;5.79;100.00;97735.22;4973979;28;20073;-56
2021/12/01 07:13:34;;;;;;;27.17;13.73;;;;;;;5.81;100.00;97737.66;4973928;28;20055;-56
2021/12/01 07:16:00;;;;;;;34.40;16.27;;;;;;;5.92;100.00;97738.94;4973762;28;20291;-58
2021/12/01 07:18:26;;;;;;;32.63;16.13;;;;;;;5.97;100.00;97742.66;4974870;28;20272;-58
2021/12/01 07:20:52;;;;;;;31.53;15.70;;;;;;;6.11;100.00;97735.53;4973702;28;20268;-59
2021/12/01 07:23:17;;;;;;;31.77;16.73;;;;;;;6.00;100.00;97728.19;4974969;28;20080;-57
2021/12/01 07:25:43;;;;;;;29.33;18.00;;;;;;;5.85;100.00;97738.91;4974864;28;20049;-58
2021/12/01 07:28:08;;;;;;;18.53;12.00;;;;;;;5.88;100.00;97733.25;4974807;28;20039;-57
2021/12/01 07:30:35;;;;;;;15.67;9.13;;;;;;;5.78;100.00;97720.31;4974988;28;20034;-56
2021/12/01 07:33:01;;;;;;;12.07;7.17;;;;;;;5.76;100.00;97725.03;4970327;28;20044;-58
2021/12/01 07:35:27;;;;;;;12.87;9.00;;;;;;;5.79;100.00;97732.56;4970135;28;20391;-58
2021/12/01 07:37:53;;;;;;;14.07;8.57;;;;;;;5.84;100.00;97721.38;4973835;28;20343;-59
2021/12/01 07:40:19;;;;;;;10.10;7.80;;;;;;;5.69;100.00;97726.00;4974648;28;20162;-59
2021/12/01 07:42:45;;;;;;;15.23;10.07;;;;;;;5.81;100.00;97719.94;4974750;28;20054;-59
2021/12/01 07:45:11;;;;;;;21.10;10.83;;;;;;;5.94;100.00;97727.13;4979018;28;20307;-58
2021/12/01 07:47:37;;;;;;;45.00;22.13;;;;;;;5.95;100.00;97712.03;4974092;28;20057;-58
2021/12/01 07:50:04;;;;;;;44.27;21.03;;;;;;;5.95;100.00;97714.69;4979881;28;20277;-58
2021/12/01 07:52:30;;;;;;;37.60;18.00;;;;;;;5.94;100.00;97700.63;4988134;28;20022;-54
2021/12/01 07:54:56;;;;;;;35.93;17.30;;;;;;;5.91;100.00;97716.09;4976879;28;20277;-54
2021/12/01 07:57:22;;;;;;;29.93;15.20;;;;;;;5.96;100.00;97708.38;4973874;28;20272;-54
2021/12/01 07:59:47;;;;;;;23.93;14.13;;;;;;;6.11;100.00;97701.06;4974133;28;20117;-56
2021/12/01 08:02:13;;;;;;;29.50;15.53;;;;;;;6.12;100.00;97707.97;4973889;28;20035;-56
2021/12/01 08:04:38;;;;;;;23.67;13.47;;;;;;;6.20;100.00;97710.44;4974052;28;20046;-54
2021/12/01 08:07:04;;;;;;;17.33;12.00;;;;;;;6.12;100.00;97700.81;4976217;28;20038;-56
2021/12/01 08:09:30;;;;;;;17.43;9.53;;;;;;;6.15;100.00;97699.59;4973605;28;20039;-55
2021/12/01 08:11:56;;;;;;;15.67;8.77;;;;;;;6.21;100.00;97693.50;4976234;28;20407;-54
2021/12/01 08:14:22;;;;;;;13.67;8.50;;;;;;;6.20;100.00;97678.63;4978831;28;20546;-51
2021/12/01 08:16:48;;;;;;;16.17;8.57;;;;;;;6.10;100.00;97672.91;4983657;28;20291;-54
2021/12/01 08:19:14;;;;;;;13.03;7.47;;;;;;;6.25;100.00;97668.19;4988807;28;20752;-53
2021/12/01 08:21:40;;;;;;;11.77;7.63;;;;;;;6.23;100.00;97672.88;4973571;28;20288;-54
2021/12/01 08:24:05;;;;;;;13.63;7.67;;;;;;;6.11;100.00;97677.19;4973711;28;20034;-55
2021/12/01 08:26:31;;;;;;;10.33;6.53;;;;;;;6.19;100.00;97671.66;4973581;28;20031;-56
2021/12/01 08:28:57;;;;;;;12.90;7.67;;;;;;;6.33;100.00;97667.19;4973550;28;20092;-55
2021/12/01 08:31:23;;;;;;;11.90;7.07;;;;;;;6.36;100.00;97661.44;4973103;28;20500;-58
2021/12/01 08:33:49;;;;;;;11.87;7.37;;;;;;;6.48;100.00;97657.97;4976370;28;20038;-54
2021/12/01 08:36:15;;;;;;;9.57;5.73;;;;;;;6.66;100.00;97659.16;4973408;28;20753;-55
2021/12/01 08:38:41;;;;;;;7.97;5.10;;;;;;;6.94;100.00;97648.25;4971495;28;20170;-56
2021/12/01 08:41:08;;;;;;;9.10;5.30;;;;;;;7.17;100.00;97651.22;4970500;28;20277;-53
2021/12/01 08:43:35;;;;;;;8.53;5.23;;;;;;;6.96;100.00;97647.03;4972698;28;20318;-57
2021/12/01 08:46:02;;;;;;;8.77;4.80;;;;;;;7.18;100.00;97637.75;4972903;28;20706;-55
2021/12/01 08:48:28;;;;;;;6.53;4.50;;;;;;;7.39;100.00;97635.78;4971345;28;20288;-54
2021/12/01 08:50:56;;;;;;;6.20;3.77;;;;;;;7.41;100.00;97634.56;4972132;28;20284;-55
2021/12/01 08:53:23;;;;;;;7.23;4.20;;;;;;;7.51;100.00;97628.78;4956999;28;20299;-52
2021/12/01 08:55:49;;;;;;;6.57;4.10;;;;;;;7.37;100.00;97621.94;4973075;28;20265;-52
2021/12/01 08:58:16;;;;;;;8.13;3.90;;;;;;;7.19;100.00;97628.75;4972997;28;20100;-52
2021/12/01 09:00:46;;;;;;;6.40;4.17;;;;;;;7.25;100.00;97621.78;4973234;28;20035;-55
2021/12/01 09:03:14;;;;;;;6.90;4.80;;;;;;;7.23;100.00;97627.31;4972943;28;20268;-53
2021/12/01 09:05:40;;;;;;;8.47;4.70;;;;;;;7.35;100.00;97621.31;4970893;28;20070;-54
2021/12/01 09:08:06;;;;;;;8.03;4.90;;;;;;;7.19;100.00;97615.47;4972145;28;20304;-53
2021/12/01 09:10:32;;;;;;;7.77;5.90;;;;;;;7.05;100.00;97613.06;4972897;28;20280;-51
2021/12/01 09:12:58;;;;;;;10.07;6.50;;;;;;;7.02;100.00;97600.25;4972700;28;20261;-52
2021/12/01 09:15:24;;;;;;;9.20;6.00;;;;;;;7.09;100.00;97609.78;4972541;28;20042;-54
2021/12/01 09:17:50;;;;;;;8.83;5.90;;;;;;;6.90;100.00;97618.66;4971499;28;21071;-52
2021/12/01 09:20:15;;;;;;;12.73;6.90;;;;;;;6.83;100.00;97608.06;4972636;28;20113;-53
2021/12/01 09:22:41;;;;;;;11.77;7.87;;;;;;;7.10;100.00;97602.66;4972614;28;20121;-52
2021/12/01 09:25:07;;;;;;;12.80;11.17;;;;;;;7.08;100.00;97602.84;4972558;28;20037;-54
2021/12/01 09:27:33;;;;;;;11.10;7.83;;;;;;;7.24;100.00;97593.59;4972411;28;20031;-54
2021/12/01 09:29:59;;;;;;;10.20;7.57;;;;;;;7.35;100.00;97586.78;4983104;28;20030;-53
2021/12/01 09:32:24;;;;;;;10.40;8.07;;;;;;;7.37;100.00;97582.88;4983873;28;20740;-55
2021/12/01 09:34:50;;;;;;;8.80;6.07;;;;;;;7.45;100.00;97587.13;4976514;28;20041;-56
2021/12/01 09:37:16;;;;;;;9.70;6.90;;;;;;;7.32;100.00;97588.03;4980704;28;20081;-56
2021/12/01 09:39:43;;;;;;;7.67;5.57;;;;;;;7.30;100.00;97584.75;4976856;28;20515;-55
2021/12/01 09:42:10;;;;;;;8.67;5.87;;;;;;;7.23;100.00;97589.31;4970640;28;20263;-57
2021/12/01 09:44:36;;;;;;;10.00;6.03;;;;;;;7.37;100.00;97590.03;4974442;28;20350;-55
2021/12/01 09:47:03;;;;;;;8.83;5.80;;;;;;;7.46;100.00;97578.94;4977733;28;20399;-56
2021/12/01 09:49:29;;;;;;;8.17;5.53;;;;;;;7.55;100.00;97580.31;4968047;28;20369;-57
2021/12/01 09:51:55;;;;;;;9.40;6.40;;;;;;;7.61;100.00;97574.13;4989643;28;20035;-59
2021/12/01 09:54:21;;;;;;;9.77;5.20;;;;;;;7.55;100.00;97571.53;4972063;28;20031;-60
2021/12/01 09:56:47;;;;;;;9.03;5.33;;;;;;;8.02;100.00;97556.81;4970730;28;20034;-58
2021/12/01 09:59:13;;;;;;;7.77;5.03;;;;;;;7.75;100.00;97552.75;4971939;28;20089;-59
2021/12/01 10:01:39;;;;;;;10.53;5.03;;;;;;;8.32;100.00;97538.34;4971794;28;20043;-58
2021/12/01 10:04:04;;;;;;;8.00;4.53;;;;;;;8.30;100.00;97530.56;4971373;28;20061;-58
2021/12/01 10:06:32;;;;;;;6.80;4.30;;;;;;;8.34;100.00;97514.97;4971436;28;20078;-58
2021/12/01 10:09:04;;;;;;;4.97;2.77;;;;;;;8.20;100.00;97511.63;4973439;28;20365;-58
2021/12/01 10:11:35;;;;;;;4.27;3.10;;;;;;;8.17;100.00;97512.06;4970680;28;20045;-59
2021/12/01 10:14:10;;;;;;;4.87;2.97;;;;;;;8.53;100.00;97516.63;4970711;28;20031;-58
2021/12/01 10:16:43;;;;;;;7.63;5.00;;;;;;;8.53;100.00;97508.63;4974203;28;20090;-58
2021/12/01 10:19:10;;;;;;;;;;;;;;;8.60;100.00;97508.53;4971276;28;20444;-57
2021/12/01 10:21:41;;;;;;;7.07;4.83;;;;;;;8.34;100.00;97493.69;4969856;28;19921;-59
2021/12/01 10:24:18;;;;;;;8.80;5.70;;;;;;;8.57;100.00;97499.16;4971360;28;20042;-59
2021/12/01 10:26:45;;;;;;;9.03;5.63;;;;;;;8.43;100.00;97495.00;4962626;28;20112;-58
2021/12/01 10:29:17;;;;;;;7.40;5.43;;;;;;;8.32;100.00;97487.78;4981883;28;20062;-58
2021/12/01 10:32:07;;;;;;;8.47;5.13;;;;;;;8.23;100.00;97473.09;4978321;28;20050;-56
2021/12/01 10:34:40;;;;;;;8.53;4.50;;;;;;;8.10;100.00;97474.06;4969550;28;20537;-59
2021/12/01 10:37:28;;;;;;;10.75;6.15;;;;;;;8.68;100.00;97476.28;4973616;28;20058;-58
2021/12/01 10:40:12;;;;;;;10.73;5.60;;;;;;;8.92;100.00;97475.34;4978566;28;20027;-56
2021/12/01 10:42:54;;;;;;;11.63;5.50;;;;;;;9.14;100.00;97462.31;4970598;28;20598;-57
2021/12/01 10:45:22;;;;;;;6.87;4.50;;;;;;;10.58;100.00;97460.00;4971543;28;20034;-58
2021/12/01 10:47:48;;;;;;;7.73;4.17;;;;;;;12.06;100.00;97445.41;4971726;28;20015;-55
2021/12/01 10:50:17;;;;;;;8.27;4.17;;;;;;;12.46;100.00;97451.28;4975686;28;20033;-55
2021/12/01 10:52:51;;;;;;;7.70;4.20;;;;;;;11.54;100.00;97434.97;4979364;28;20439;-55
2021/12/01 10:55:25;;;;;;;6.93;3.70;;;;;;;11.46;100.00;97433.50;4976553;28;20535;-56
2021/12/01 10:57:57;;;;;;;5.67;3.40;;;;;;;10.58;100.00;97425.28;4977007;28;20053;-55
2021/12/01 11:00:38;;;;;;;5.93;3.20;;;;;;;11.19;100.00;97427.97;4977813;28;20023;-57
2021/12/01 11:03:12;;;;;;;6.60;3.40;;;;;;;11.71;100.00;97418.91;4982520;28;20044;-58
2021/12/01 11:05:44;;;;;;;5.73;3.33;;;;;;;11.85;100.00;97418.34;4991699;28;20056;-57
2021/12/01 11:08:12;;;;;;;6.53;4.00;;;;;;;12.30;100.00;97420.03;4994534;28;20054;-57
2021/12/01 11:10:38;;;;;;;4.33;2.77;;;;;;;12.04;100.00;97404.69;4994611;28;20387;-56
2021/12/01 11:13:05;;;;;;;4.47;2.50;;;;;;;11.68;100.00;97401.47;4994609;28;20554;-56
2021/12/01 11:15:36;;;;;;;4.47;2.60;;;;;;;12.86;100.00;97402.69;4994378;28;20037;-56
2021/12/01 11:18:04;;;;;;;5.73;2.93;;;;;;;10.63;100.00;97402.13;4994524;28;20022;-56
2021/12/01 11:20:43;;;;;;;3.67;2.40;;;;;;;11.16;100.00;97388.38;4993325;28;20444;-54
2021/12/01 11:23:22;;;;;;;5.07;2.53;;;;;;;10.81;100.00;97391.25;4994386;28;20034;-56
2021/12/01 11:26:05;;;;;;;5.27;2.77;;;;;;;10.40;100.00;97389.69;4994367;28;20036;-55
2021/12/01 11:28:34;;;;;;;4.22;2.35;;;;;;;10.85;100.00;97380.88;4994306;28;20026;-56
2021/12/01 11:31:02;;;;;;;2.63;1.67;;;;;;;11.98;100.00;97374.38;4993158;28;20125;-55
2021/12/01 11:33:29;;;;;;;2.30;1.40;;;;;;;12.19;100.00;97362.03;4993971;28;20034;-56